createdAt,value
2018-04-24T00:04:14.616Z,18.70
2018-04-24T00:10:19.011Z,12.13
2018-04-24T00:16:23.360Z,16.07
2018-04-24T00:22:27.717Z,12.77
2018-04-24T00:28:32.078Z,15.93
2018-04-24T00:34:36.428Z,17.40
2018-04-24T00:40:40.765Z,13.47
2018-04-24T00:46:45.128Z,14.17
2018-04-24T00:52:50.239Z,18.47
2018-04-24T00:58:54.581Z,11.57
2018-04-24T01:04:58.921Z,13.53
2018-04-24T01:11:03.273Z,16.90
2018-04-24T01:17:07.626Z,14.23
2018-04-24T01:23:11.996Z,15.60
2018-04-24T01:29:17.101Z,14.37
2018-04-24T01:35:21.441Z,13.90
2018-04-24T01:41:25.832Z,18.70
2018-04-24T01:47:30.954Z,15.80
2018-04-24T01:53:35.317Z,19.93
2018-04-24T01:59:39.664Z,20.50
2018-04-24T02:05:44.017Z,24.60
2018-04-24T02:11:49.121Z,23.60
2018-04-24T02:17:53.462Z,18.97
2018-04-24T02:23:57.843Z,27.40
2018-04-24T02:30:02.968Z,30.63
2018-04-24T02:36:08.417Z,23.97
2018-04-24T02:42:12.762Z,25.13
2018-04-24T02:48:17.117Z,24.93
2018-04-24T02:54:21.454Z,30.90
2018-04-24T03:00:25.792Z,25.83
2018-04-24T03:06:30.171Z,25.00
2018-04-24T03:12:34.522Z,29.47
2018-04-24T03:18:38.838Z,31.00
2018-04-24T03:24:43.176Z,28.77
2018-04-24T03:30:47.537Z,32.23
2018-04-24T03:36:51.874Z,27.30
2018-04-24T03:42:56.233Z,32.77
2018-04-24T03:49:01.348Z,26.90
2018-04-24T03:55:05.693Z,32.60
2018-04-24T04:01:10.035Z,29.17
2018-04-24T04:07:14.388Z,28.73
2018-04-24T04:13:18.734Z,42.40
2018-04-24T04:19:41.480Z,30.70
2018-04-24T04:25:45.828Z,31.60
2018-04-24T04:31:50.178Z,26.73
2018-04-24T04:37:54.519Z,27.30
2018-04-24T04:44:00.475Z,30.10
2018-04-24T04:50:04.862Z,29.53
2018-04-24T04:56:09.991Z,33.10
2018-04-24T05:02:14.320Z,28.73
2018-04-24T05:08:18.657Z,34.70
2018-04-24T05:14:23.767Z,32.80
2018-04-24T05:20:28.879Z,31.97
2018-04-24T05:26:33.228Z,36.13
2018-04-24T05:32:37.591Z,27.17
2018-04-24T05:38:41.963Z,27.10
2018-04-24T05:44:47.080Z,26.30
2018-04-24T05:50:52.212Z,27.30
2018-04-24T05:56:56.568Z,23.20
2018-04-24T06:03:00.927Z,19.70
2018-04-24T06:09:06.118Z,29.30
2018-04-24T06:15:11.286Z,19.60
2018-04-24T06:21:15.621Z,23.10
2018-04-24T06:27:20.006Z,20.50
2018-04-24T06:33:24.404Z,17.70
2018-04-24T06:39:28.761Z,15.27
2018-04-24T06:45:33.109Z,12.87
2018-04-24T06:51:37.488Z,14.07
2018-04-24T06:57:41.824Z,9.57
2018-04-24T07:03:46.169Z,7.50
2018-04-24T07:09:50.508Z,11.10
2018-04-24T07:15:54.849Z,11.20
2018-04-24T07:21:59.191Z,7.20
2018-04-24T07:28:03.541Z,8.30
2018-04-24T07:34:07.908Z,6.10
2018-04-24T07:40:13.017Z,6.73
2018-04-24T07:46:18.134Z,7.70
2018-04-24T07:52:22.476Z,8.10
2018-04-24T07:58:26.802Z,6.70
2018-04-24T08:04:31.922Z,7.40
2018-04-24T08:10:36.255Z,6.20
2018-04-24T08:16:40.589Z,7.07
2018-04-24T08:22:45.003Z,9.30
2018-04-24T08:28:49.267Z,5.90
2018-04-24T08:34:53.611Z,9.50
2018-04-24T08:40:57.989Z,7.33
2018-04-24T08:47:02.329Z,6.23
2018-04-24T08:53:06.651Z,7.60
2018-04-24T08:59:11.817Z,6.00
2018-04-24T09:05:16.173Z,7.70
2018-04-24T09:11:20.520Z,8.07
2018-04-24T09:17:24.857Z,11.67
2018-04-24T09:23:29.986Z,10.60
2018-04-24T09:29:34.325Z,7.90
2018-04-24T09:35:38.661Z,7.03
2018-04-24T09:41:43.096Z,9.33
2018-04-24T09:47:47.451Z,7.87
2018-04-24T09:53:51.805Z,6.80
2018-04-24T09:59:56.148Z,4.97
2018-04-24T10:06:00.499Z,4.40
2018-04-24T10:12:04.857Z,5.87
2018-04-24T10:18:09.987Z,7.20
2018-04-24T10:24:14.326Z,8.10
2018-04-24T10:30:18.659Z,5.87
2018-04-24T10:36:23.613Z,5.40
2018-04-24T10:42:27.947Z,5.30
2018-04-24T10:48:32.301Z,6.50
2018-04-24T10:54:36.685Z,8.53
2018-04-24T11:00:41.093Z,4.97
2018-04-24T11:06:45.457Z,7.90
2018-04-24T11:12:49.733Z,4.37
2018-04-24T11:18:54.078Z,4.23
2018-04-24T11:24:58.439Z,4.13
2018-04-24T11:31:02.793Z,3.70
2018-04-24T11:37:07.133Z,6.87
2018-04-24T11:43:11.489Z,3.27
2018-04-24T11:49:15.839Z,7.77
2018-04-24T11:55:20.943Z,3.33
2018-04-24T12:01:25.284Z,8.70
2018-04-24T12:07:29.629Z,6.47
2018-04-24T12:13:33.997Z,5.10
2018-04-24T12:19:38.353Z,3.27
2018-04-24T12:25:43.479Z,6.50
2018-04-24T12:31:47.868Z,10.53
2018-04-24T12:37:53.044Z,4.80
2018-04-24T12:43:57.384Z,5.40
2018-04-24T12:50:01.716Z,4.90
2018-04-24T12:56:06.103Z,4.53
2018-04-24T13:02:10.437Z,3.10
2018-04-24T13:08:14.783Z,5.20
2018-04-24T13:14:19.148Z,4.23
2018-04-24T13:20:23.589Z,3.87
2018-04-24T13:26:27.923Z,3.53
2018-04-24T13:32:32.269Z,5.00
2018-04-24T13:38:36.608Z,2.00
2018-04-24T13:44:40.949Z,2.43
2018-04-24T13:50:45.290Z,2.20
2018-04-24T13:56:49.620Z,7.40
2018-04-24T14:02:53.954Z,2.63
2018-04-24T14:08:58.324Z,7.53
2018-04-24T14:15:02.688Z,3.90
2018-04-24T14:21:07.794Z,3.73
2018-04-24T14:27:12.120Z,5.57
2018-04-24T14:33:16.479Z,5.80
2018-04-24T14:39:20.881Z,7.27
2018-04-24T14:45:25.216Z,9.13
2018-04-24T14:51:29.581Z,6.77
2018-04-24T14:57:33.923Z,12.07
2018-04-24T15:03:38.274Z,9.67
2018-04-24T15:09:42.616Z,12.10
2018-04-24T15:15:46.964Z,18.00
2018-04-24T15:21:51.310Z,8.13
2018-04-24T15:27:55.671Z,15.20
2018-04-24T15:34:00.007Z,9.57
2018-04-24T15:40:04.348Z,17.63
2018-04-24T15:46:08.703Z,16.23
2018-04-24T15:52:13.821Z,10.10
2018-04-24T15:58:18.170Z,12.03
2018-04-24T16:04:22.516Z,13.70
2018-04-24T16:10:26.895Z,14.47
2018-04-24T16:16:31.269Z,15.30
2018-04-24T16:22:35.631Z,16.47
2018-04-24T16:28:40.006Z,13.67
2018-04-24T16:34:45.129Z,13.97
2018-04-24T16:40:49.475Z,14.60
2018-04-24T16:46:53.851Z,17.40
2018-04-24T16:52:59.031Z,12.90
2018-04-24T16:59:03.402Z,13.53
2018-04-24T17:05:07.769Z,17.30
2018-04-24T17:11:12.122Z,15.97
2018-04-24T17:17:17.252Z,120.93
2018-04-24T17:23:21.599Z,17.43
2018-04-24T17:29:25.962Z,19.63
2018-04-24T17:35:30.313Z,20.07
2018-04-24T17:41:35.426Z,19.30
2018-04-24T17:47:39.777Z,16.23
2018-04-24T17:53:44.133Z,16.90
2018-04-24T17:59:48.504Z,18.27
2018-04-24T18:05:53.608Z,18.60
2018-04-24T18:11:57.960Z,22.70
2018-04-24T18:18:02.307Z,21.67
2018-04-24T18:24:06.673Z,20.60
2018-04-24T18:30:11.793Z,20.77
2018-04-24T18:36:16.922Z,26.93
2018-04-24T18:42:21.260Z,22.13
2018-04-24T18:48:25.620Z,28.13
2018-04-24T18:54:29.982Z,23.13
2018-04-24T19:00:34.329Z,27.37
2018-04-24T19:06:38.716Z,21.27
2018-04-24T19:12:43.083Z,23.23
2018-04-24T19:18:52.797Z,23.60
2018-04-24T19:31:46.356Z,25.33
2018-04-24T19:37:50.823Z,28.00
2018-04-24T19:43:55.202Z,25.10
2018-04-24T19:50:05.790Z,22.93
2018-04-24T19:56:10.934Z,28.00
2018-04-24T20:02:15.387Z,25.60
2018-04-24T20:08:19.859Z,27.87
2018-04-24T20:14:24.289Z,24.10
2018-04-24T20:20:28.701Z,26.13
2018-04-24T20:26:33.947Z,27.00
2018-04-24T20:32:38.417Z,26.10
2018-04-24T20:38:42.950Z,22.60
2018-04-24T20:44:47.320Z,25.17
2018-04-24T20:50:52.527Z,27.93
2018-04-24T20:56:57.088Z,26.50
2018-04-24T21:03:02.252Z,25.30
2018-04-24T21:09:07.551Z,28.93
2018-04-24T21:15:11.959Z,29.13
2018-04-24T21:21:17.088Z,29.20
2018-04-24T21:27:21.546Z,30.23
2018-04-24T21:33:26.071Z,30.27
2018-04-24T21:39:30.559Z,32.23
2018-04-24T21:45:35.584Z,29.63
2018-04-24T21:51:40.034Z,30.90
2018-04-24T21:57:44.411Z,30.87
2018-04-24T22:03:48.801Z,33.73
2018-04-24T22:09:54.791Z,35.77
2018-04-24T22:15:59.331Z,32.90
2018-04-24T22:22:03.687Z,31.47
2018-04-24T22:28:08.176Z,30.37
2018-04-24T22:34:12.750Z,34.10
2018-04-24T22:40:17.222Z,28.83
2018-04-24T22:46:21.590Z,34.47
2018-04-24T22:52:26.047Z,31.37
2018-04-24T22:58:30.524Z,34.07
2018-04-24T23:04:35.008Z,36.47
2018-04-24T23:10:57.976Z,43.87
2018-04-24T23:17:25.997Z,40.33
2018-04-24T23:23:36.378Z,40.17
2018-04-24T23:29:40.729Z,41.00
2018-04-24T23:35:45.953Z,41.37
2018-04-24T23:41:50.316Z,42.50
2018-04-24T23:47:55.660Z,38.97
2018-04-24T23:54:00.067Z,40.27
